sensor_id;sensor_type;location;lat;lon;timestamp;P1;durP1;ratioP1;P2;durP2;ratioP2
55647;SDS011;45266;48.756;9.246;2023-09-30T00:02:11;6.50;;;2.53;;
55647;SDS011;45266;48.756;9.246;2023-09-30T00:07:13;5.30;;;2.53;;
55647;SDS011;45266;48.756;9.246;2023-09-30T00:12:15;12.37;;;2.47;;
55647;SDS011;45266;48.756;9.246;2023-09-30T00:17:17;10.43;;;3.47;;
55647;SDS011;45266;48.756;9.246;2023-09-30T00:22:19;4.90;;;2.50;;
55647;SDS011;45266;48.756;9.246;2023-09-30T00:27:21;6.77;;;2.20;;
55647;SDS011;45266;48.756;9.246;2023-09-30T00:32:23;10.60;;;1.90;;
55647;SDS011;45266;48.756;9.246;2023-09-30T00:37:25;6.30;;;3.10;;
55647;SDS011;45266;48.756;9.246;2023-09-30T00:42:27;3.87;;;2.57;;
55647;SDS011;45266;48.756;9.246;2023-09-30T00:47:29;3.00;;;1.80;;
55647;SDS011;45266;48.756;9.246;2023-09-30T00:52:31;5.03;;;2.20;;
55647;SDS011;45266;48.756;9.246;2023-09-30T00:57:34;3.80;;;2.33;;
55647;SDS011;45266;48.756;9.246;2023-09-30T01:02:36;2.30;;;1.77;;
55647;SDS011;45266;48.756;9.246;2023-09-30T01:07:40;5.43;;;2.37;;
55647;SDS011;45266;48.756;9.246;2023-09-30T01:12:42;5.20;;;2.30;;
55647;SDS011;45266;48.756;9.246;2023-09-30T01:17:44;5.10;;;1.73;;
55647;SDS011;45266;48.756;9.246;2023-09-30T01:22:46;3.47;;;1.80;;
55647;SDS011;45266;48.756;9.246;2023-09-30T01:27:47;3.77;;;1.87;;
55647;SDS011;45266;48.756;9.246;2023-09-30T01:32:49;2.70;;;1.70;;
55647;SDS011;45266;48.756;9.246;2023-09-30T01:37:51;2.47;;;2.17;;
55647;SDS011;45266;48.756;9.246;2023-09-30T01:42:53;4.70;;;1.57;;
55647;SDS011;45266;48.756;9.246;2023-09-30T01:47:55;4.30;;;1.83;;
55647;SDS011;45266;48.756;9.246;2023-09-30T01:52:57;4.30;;;2.27;;
55647;SDS011;45266;48.756;9.246;2023-09-30T01:57:58;3.60;;;1.73;;
55647;SDS011;45266;48.756;9.246;2023-09-30T02:03:01;2.10;;;1.90;;
55647;SDS011;45266;48.756;9.246;2023-09-30T02:08:03;2.70;;;2.20;;
55647;SDS011;45266;48.756;9.246;2023-09-30T02:13:06;5.50;;;2.20;;
55647;SDS011;45266;48.756;9.246;2023-09-30T02:18:08;3.87;;;2.17;;
55647;SDS011;45266;48.756;9.246;2023-09-30T02:23:10;3.50;;;2.03;;
55647;SDS011;45266;48.756;9.246;2023-09-30T02:28:13;3.50;;;2.30;;
55647;SDS011;45266;48.756;9.246;2023-09-30T02:33:14;2.90;;;1.80;;
55647;SDS011;45266;48.756;9.246;2023-09-30T02:38:16;3.37;;;2.17;;
55647;SDS011;45266;48.756;9.246;2023-09-30T02:43:19;2.47;;;2.10;;
55647;SDS011;45266;48.756;9.246;2023-09-30T02:48:21;4.40;;;1.83;;
55647;SDS011;45266;48.756;9.246;2023-09-30T02:53:23;3.37;;;2.13;;
55647;SDS011;45266;48.756;9.246;2023-09-30T02:58:25;2.90;;;2.00;;
55647;SDS011;45266;48.756;9.246;2023-09-30T03:03:26;3.53;;;2.23;;
55647;SDS011;45266;48.756;9.246;2023-09-30T03:08:29;4.77;;;2.37;;
55647;SDS011;45266;48.756;9.246;2023-09-30T03:13:31;4.27;;;2.50;;
55647;SDS011;45266;48.756;9.246;2023-09-30T03:18:33;3.50;;;2.13;;
55647;SDS011;45266;48.756;9.246;2023-09-30T03:23:35;4.33;;;2.03;;
55647;SDS011;45266;48.756;9.246;2023-09-30T03:28:39;4.47;;;2.13;;
55647;SDS011;45266;48.756;9.246;2023-09-30T03:33:42;3.53;;;2.10;;
55647;SDS011;45266;48.756;9.246;2023-09-30T03:38:44;2.03;;;1.83;;
55647;SDS011;45266;48.756;9.246;2023-09-30T03:43:46;3.33;;;2.20;;
55647;SDS011;45266;48.756;9.246;2023-09-30T03:48:48;3.73;;;1.90;;
55647;SDS011;45266;48.756;9.246;2023-09-30T03:53:50;5.50;;;2.60;;
55647;SDS011;45266;48.756;9.246;2023-09-30T03:58:53;2.57;;;2.37;;
55647;SDS011;45266;48.756;9.246;2023-09-30T04:03:55;2.70;;;2.20;;
55647;SDS011;45266;48.756;9.246;2023-09-30T04:08:58;3.90;;;2.60;;
55647;SDS011;45266;48.756;9.246;2023-09-30T04:14:00;2.10;;;1.90;;
55647;SDS011;45266;48.756;9.246;2023-09-30T04:19:03;6.37;;;2.60;;
55647;SDS011;45266;48.756;9.246;2023-09-30T04:24:05;5.43;;;2.77;;
55647;SDS011;45266;48.756;9.246;2023-09-30T04:29:08;3.50;;;2.40;;
55647;SDS011;45266;48.756;9.246;2023-09-30T04:34:11;3.97;;;2.13;;
55647;SDS011;45266;48.756;9.246;2023-09-30T04:39:14;2.83;;;2.17;;
55647;SDS011;45266;48.756;9.246;2023-09-30T04:44:17;6.10;;;2.33;;
55647;SDS011;45266;48.756;9.246;2023-09-30T04:49:19;4.87;;;2.47;;
55647;SDS011;45266;48.756;9.246;2023-09-30T04:54:22;4.33;;;2.50;;
55647;SDS011;45266;48.756;9.246;2023-09-30T04:59:24;5.17;;;2.87;;
55647;SDS011;45266;48.756;9.246;2023-09-30T05:04:26;2.83;;;2.40;;
55647;SDS011;45266;48.756;9.246;2023-09-30T05:09:30;6.60;;;3.40;;
55647;SDS011;45266;48.756;9.246;2023-09-30T05:14:41;4.53;;;2.60;;
55647;SDS011;45266;48.756;9.246;2023-09-30T05:19:45;3.70;;;2.10;;
55647;SDS011;45266;48.756;9.246;2023-09-30T05:24:47;4.63;;;3.10;;
55647;SDS011;45266;48.756;9.246;2023-09-30T05:29:49;3.77;;;2.23;;
55647;SDS011;45266;48.756;9.246;2023-09-30T05:34:51;6.83;;;2.73;;
55647;SDS011;45266;48.756;9.246;2023-09-30T05:39:54;3.60;;;2.00;;
55647;SDS011;45266;48.756;9.246;2023-09-30T05:44:55;7.00;;;2.37;;
55647;SDS011;45266;48.756;9.246;2023-09-30T05:49:57;5.57;;;3.30;;
55647;SDS011;45266;48.756;9.246;2023-09-30T05:54:59;6.63;;;2.83;;
55647;SDS011;45266;48.756;9.246;2023-09-30T06:00:04;2.47;;;2.27;;
55647;SDS011;45266;48.756;9.246;2023-09-30T06:05:26;2.27;;;2.07;;
55647;SDS011;45266;48.756;9.246;2023-09-30T06:10:31;3.13;;;2.67;;
55647;SDS011;45266;48.756;9.246;2023-09-30T06:15:36;3.87;;;2.50;;
55647;SDS011;45266;48.756;9.246;2023-09-30T06:20:41;2.90;;;2.50;;
55647;SDS011;45266;48.756;9.246;2023-09-30T06:25:43;3.47;;;1.80;;
55647;SDS011;45266;48.756;9.246;2023-09-30T06:30:45;3.87;;;2.60;;
55647;SDS011;45266;48.756;9.246;2023-09-30T06:35:48;5.53;;;2.10;;
55647;SDS011;45266;48.756;9.246;2023-09-30T06:40:53;3.87;;;2.00;;
55647;SDS011;45266;48.756;9.246;2023-09-30T06:45:55;2.83;;;2.10;;
55647;SDS011;45266;48.756;9.246;2023-09-30T06:50:57;6.70;;;3.00;;
55647;SDS011;45266;48.756;9.246;2023-09-30T06:56:03;4.47;;;2.57;;
55647;SDS011;45266;48.756;9.246;2023-09-30T07:01:06;5.23;;;3.20;;
55647;SDS011;45266;48.756;9.246;2023-09-30T07:06:08;5.13;;;2.83;;
55647;SDS011;45266;48.756;9.246;2023-09-30T07:11:09;9.13;;;4.07;;
55647;SDS011;45266;48.756;9.246;2023-09-30T07:16:12;3.57;;;2.90;;
55647;SDS011;45266;48.756;9.246;2023-09-30T07:21:14;6.63;;;3.00;;
55647;SDS011;45266;48.756;9.246;2023-09-30T07:26:16;5.00;;;3.20;;
55647;SDS011;45266;48.756;9.246;2023-09-30T07:31:18;6.50;;;2.87;;
55647;SDS011;45266;48.756;9.246;2023-09-30T07:36:20;9.53;;;3.47;;
55647;SDS011;45266;48.756;9.246;2023-09-30T07:41:22;7.23;;;3.27;;
55647;SDS011;45266;48.756;9.246;2023-09-30T07:46:24;4.30;;;3.20;;
55647;SDS011;45266;48.756;9.246;2023-09-30T07:51:26;8.30;;;3.17;;
55647;SDS011;45266;48.756;9.246;2023-09-30T07:56:28;6.20;;;3.53;;
55647;SDS011;45266;48.756;9.246;2023-09-30T08:01:30;9.97;;;4.00;;
55647;SDS011;45266;48.756;9.246;2023-09-30T08:06:33;9.07;;;3.27;;
55647;SDS011;45266;48.756;9.246;2023-09-30T08:11:35;6.60;;;3.27;;
55647;SDS011;45266;48.756;9.246;2023-09-30T08:16:38;7.60;;;3.60;;
55647;SDS011;45266;48.756;9.246;2023-09-30T08:21:40;6.33;;;3.80;;
55647;SDS011;45266;48.756;9.246;2023-09-30T08:26:42;13.30;;;3.80;;
55647;SDS011;45266;48.756;9.246;2023-09-30T08:31:44;7.70;;;3.70;;
55647;SDS011;45266;48.756;9.246;2023-09-30T08:36:46;6.80;;;3.23;;
55647;SDS011;45266;48.756;9.246;2023-09-30T08:41:48;6.63;;;3.23;;
55647;SDS011;45266;48.756;9.246;2023-09-30T08:46:51;5.23;;;2.90;;
55647;SDS011;45266;48.756;9.246;2023-09-30T08:51:54;9.10;;;3.50;;
55647;SDS011;45266;48.756;9.246;2023-09-30T08:56:58;5.47;;;3.03;;
55647;SDS011;45266;48.756;9.246;2023-09-30T09:02:03;6.47;;;3.77;;
55647;SDS011;45266;48.756;9.246;2023-09-30T09:07:10;4.93;;;3.47;;
55647;SDS011;45266;48.756;9.246;2023-09-30T09:12:19;6.00;;;3.40;;
55647;SDS011;45266;48.756;9.246;2023-09-30T09:17:21;5.47;;;3.30;;
55647;SDS011;45266;48.756;9.246;2023-09-30T09:22:24;6.30;;;4.20;;
55647;SDS011;45266;48.756;9.246;2023-09-30T09:27:25;5.40;;;3.73;;
55647;SDS011;45266;48.756;9.246;2023-09-30T09:32:27;6.83;;;3.20;;
55647;SDS011;45266;48.756;9.246;2023-09-30T09:37:30;5.43;;;3.50;;
55647;SDS011;45266;48.756;9.246;2023-09-30T09:42:33;5.20;;;3.80;;
55647;SDS011;45266;48.756;9.246;2023-09-30T09:47:38;7.50;;;4.00;;
55647;SDS011;45266;48.756;9.246;2023-09-30T09:52:41;4.33;;;2.73;;
55647;SDS011;45266;48.756;9.246;2023-09-30T09:57:44;5.57;;;3.33;;
55647;SDS011;45266;48.756;9.246;2023-09-30T10:02:47;4.57;;;3.37;;
55647;SDS011;45266;48.756;9.246;2023-09-30T10:07:52;6.80;;;2.90;;
55647;SDS011;45266;48.756;9.246;2023-09-30T10:12:57;5.80;;;3.00;;
55647;SDS011;45266;48.756;9.246;2023-09-30T10:39:02;4.23;;;2.90;;
55647;SDS011;45266;48.756;9.246;2023-09-30T10:54:30;6.13;;;3.77;;
55647;SDS011;45266;48.756;9.246;2023-09-30T10:59:33;8.40;;;3.67;;
55647;SDS011;45266;48.756;9.246;2023-09-30T11:04:46;7.23;;;3.03;;
55647;SDS011;45266;48.756;9.246;2023-09-30T11:09:48;7.40;;;3.50;;
55647;SDS011;45266;48.756;9.246;2023-09-30T11:14:58;3.37;;;2.83;;
55647;SDS011;45266;48.756;9.246;2023-09-30T11:20:02;7.23;;;3.67;;
55647;SDS011;45266;48.756;9.246;2023-09-30T11:25:14;7.70;;;3.90;;
55647;SDS011;45266;48.756;9.246;2023-09-30T11:30:18;7.23;;;3.60;;
55647;SDS011;45266;48.756;9.246;2023-09-30T11:35:23;5.00;;;3.37;;
55647;SDS011;45266;48.756;9.246;2023-09-30T11:40:25;7.93;;;3.50;;
55647;SDS011;45266;48.756;9.246;2023-09-30T11:45:27;5.77;;;3.80;;
55647;SDS011;45266;48.756;9.246;2023-09-30T11:50:44;8.50;;;3.37;;
55647;SDS011;45266;48.756;9.246;2023-09-30T11:55:49;6.20;;;3.70;;
55647;SDS011;45266;48.756;9.246;2023-09-30T12:00:54;7.40;;;3.63;;
55647;SDS011;45266;48.756;9.246;2023-09-30T12:05:58;6.80;;;3.73;;
55647;SDS011;45266;48.756;9.246;2023-09-30T12:11:01;8.23;;;4.00;;
55647;SDS011;45266;48.756;9.246;2023-09-30T12:16:03;4.80;;;3.10;;
55647;SDS011;45266;48.756;9.246;2023-09-30T12:21:05;7.13;;;4.27;;
55647;SDS011;45266;48.756;9.246;2023-09-30T12:26:09;5.63;;;3.13;;
55647;SDS011;45266;48.756;9.246;2023-09-30T12:31:16;9.30;;;4.20;;
55647;SDS011;45266;48.756;9.246;2023-09-30T12:36:20;7.37;;;3.97;;
55647;SDS011;45266;48.756;9.246;2023-09-30T12:41:24;5.77;;;3.40;;
55647;SDS011;45266;48.756;9.246;2023-09-30T12:46:25;5.23;;;3.67;;
55647;SDS011;45266;48.756;9.246;2023-09-30T12:51:27;9.73;;;3.83;;
55647;SDS011;45266;48.756;9.246;2023-09-30T12:56:30;6.73;;;3.97;;
55647;SDS011;45266;48.756;9.246;2023-09-30T13:01:32;7.13;;;3.93;;
55647;SDS011;45266;48.756;9.246;2023-09-30T13:06:36;6.57;;;3.70;;
55647;SDS011;45266;48.756;9.246;2023-09-30T13:11:38;5.03;;;3.00;;
55647;SDS011;45266;48.756;9.246;2023-09-30T13:16:40;5.30;;;3.57;;
55647;SDS011;45266;48.756;9.246;2023-09-30T13:21:42;7.60;;;3.37;;
55647;SDS011;45266;48.756;9.246;2023-09-30T13:26:45;6.80;;;3.50;;
55647;SDS011;45266;48.756;9.246;2023-09-30T13:31:48;6.30;;;3.70;;
55647;SDS011;45266;48.756;9.246;2023-09-30T13:36:50;7.23;;;3.80;;
55647;SDS011;45266;48.756;9.246;2023-09-30T13:41:51;7.10;;;3.93;;
55647;SDS011;45266;48.756;9.246;2023-09-30T13:46:53;6.10;;;3.60;;
55647;SDS011;45266;48.756;9.246;2023-09-30T13:51:55;11.17;;;3.53;;
55647;SDS011;45266;48.756;9.246;2023-09-30T13:56:57;6.00;;;3.20;;
55647;SDS011;45266;48.756;9.246;2023-09-30T14:01:59;4.73;;;3.50;;
55647;SDS011;45266;48.756;9.246;2023-09-30T14:07:02;5.60;;;3.50;;
55647;SDS011;45266;48.756;9.246;2023-09-30T14:12:04;7.17;;;3.63;;
55647;SDS011;45266;48.756;9.246;2023-09-30T14:17:07;10.60;;;4.10;;
55647;SDS011;45266;48.756;9.246;2023-09-30T14:22:11;7.83;;;4.20;;
55647;SDS011;45266;48.756;9.246;2023-09-30T14:27:13;11.30;;;3.77;;
55647;SDS011;45266;48.756;9.246;2023-09-30T14:32:16;7.60;;;2.90;;
55647;SDS011;45266;48.756;9.246;2023-09-30T14:37:19;13.27;;;3.80;;
55647;SDS011;45266;48.756;9.246;2023-09-30T14:42:21;7.87;;;3.90;;
55647;SDS011;45266;48.756;9.246;2023-09-30T14:47:23;7.50;;;3.33;;
55647;SDS011;45266;48.756;9.246;2023-09-30T14:52:25;7.63;;;3.77;;
55647;SDS011;45266;48.756;9.246;2023-09-30T14:57:27;6.97;;;3.90;;
55647;SDS011;45266;48.756;9.246;2023-09-30T15:02:29;7.03;;;4.10;;
55647;SDS011;45266;48.756;9.246;2023-09-30T15:07:31;7.77;;;4.10;;
55647;SDS011;45266;48.756;9.246;2023-09-30T15:12:32;6.70;;;3.80;;
55647;SDS011;45266;48.756;9.246;2023-09-30T15:17:35;8.00;;;3.87;;
55647;SDS011;45266;48.756;9.246;2023-09-30T15:22:36;7.90;;;3.87;;
55647;SDS011;45266;48.756;9.246;2023-09-30T15:27:38;6.37;;;3.47;;
55647;SDS011;45266;48.756;9.246;2023-09-30T15:32:41;4.73;;;3.60;;
55647;SDS011;45266;48.756;9.246;2023-09-30T15:37:42;10.17;;;4.80;;
55647;SDS011;45266;48.756;9.246;2023-09-30T15:42:44;7.37;;;3.07;;
55647;SDS011;45266;48.756;9.246;2023-09-30T15:47:47;9.87;;;3.87;;
55647;SDS011;45266;48.756;9.246;2023-09-30T15:52:49;5.47;;;3.07;;
55647;SDS011;45266;48.756;9.246;2023-09-30T15:57:51;9.93;;;3.47;;
55647;SDS011;45266;48.756;9.246;2023-09-30T16:02:53;7.47;;;3.30;;
55647;SDS011;45266;48.756;9.246;2023-09-30T16:07:55;8.83;;;4.43;;
55647;SDS011;45266;48.756;9.246;2023-09-30T16:12:57;7.20;;;3.40;;
55647;SDS011;45266;48.756;9.246;2023-09-30T16:18:00;7.80;;;3.83;;
55647;SDS011;45266;48.756;9.246;2023-09-30T16:23:02;8.27;;;3.53;;
55647;SDS011;45266;48.756;9.246;2023-09-30T16:28:05;7.33;;;4.13;;
55647;SDS011;45266;48.756;9.246;2023-09-30T16:33:07;10.63;;;4.60;;
55647;SDS011;45266;48.756;9.246;2023-09-30T16:38:11;6.40;;;3.73;;
55647;SDS011;45266;48.756;9.246;2023-09-30T16:43:12;8.20;;;4.10;;
55647;SDS011;45266;48.756;9.246;2023-09-30T16:48:15;5.07;;;3.03;;
55647;SDS011;45266;48.756;9.246;2023-09-30T16:53:17;8.37;;;3.90;;
55647;SDS011;45266;48.756;9.246;2023-09-30T16:58:19;9.07;;;3.63;;
55647;SDS011;45266;48.756;9.246;2023-09-30T17:03:20;12.37;;;3.60;;
55647;SDS011;45266;48.756;9.246;2023-09-30T17:08:22;11.03;;;4.67;;
55647;SDS011;45266;48.756;9.246;2023-09-30T17:13:24;12.83;;;7.17;;
55647;SDS011;45266;48.756;9.246;2023-09-30T17:18:27;11.37;;;5.83;;
55647;SDS011;45266;48.756;9.246;2023-09-30T17:23:29;13.43;;;7.50;;
55647;SDS011;45266;48.756;9.246;2023-09-30T17:28:31;16.30;;;11.37;;
55647;SDS011;45266;48.756;9.246;2023-09-30T17:33:33;12.97;;;8.47;;
55647;SDS011;45266;48.756;9.246;2023-09-30T17:38:35;12.70;;;7.73;;
55647;SDS011;45266;48.756;9.246;2023-09-30T17:43:40;7.20;;;4.20;;
55647;SDS011;45266;48.756;9.246;2023-09-30T17:48:43;9.90;;;5.40;;
55647;SDS011;45266;48.756;9.246;2023-09-30T17:53:50;8.47;;;5.10;;
55647;SDS011;45266;48.756;9.246;2023-09-30T17:58:53;8.33;;;4.60;;
55647;SDS011;45266;48.756;9.246;2023-09-30T18:03:55;9.70;;;5.17;;
55647;SDS011;45266;48.756;9.246;2023-09-30T18:08:57;9.43;;;4.10;;
55647;SDS011;45266;48.756;9.246;2023-09-30T18:13:59;10.63;;;5.60;;
55647;SDS011;45266;48.756;9.246;2023-09-30T18:19:01;8.83;;;4.30;;
55647;SDS011;45266;48.756;9.246;2023-09-30T18:24:04;8.43;;;3.80;;
55647;SDS011;45266;48.756;9.246;2023-09-30T18:29:06;7.47;;;4.23;;
55647;SDS011;45266;48.756;9.246;2023-09-30T18:34:08;9.20;;;4.23;;
55647;SDS011;45266;48.756;9.246;2023-09-30T18:39:10;12.07;;;4.20;;
55647;SDS011;45266;48.756;9.246;2023-09-30T18:44:26;6.43;;;4.17;;
55647;SDS011;45266;48.756;9.246;2023-09-30T18:49:28;8.77;;;4.80;;
55647;SDS011;45266;48.756;9.246;2023-09-30T18:54:30;10.03;;;5.07;;
55647;SDS011;45266;48.756;9.246;2023-09-30T18:59:32;12.27;;;4.20;;
55647;SDS011;45266;48.756;9.246;2023-09-30T19:04:34;8.03;;;4.23;;
55647;SDS011;45266;48.756;9.246;2023-09-30T19:09:38;10.97;;;3.90;;
55647;SDS011;45266;48.756;9.246;2023-09-30T19:14:40;9.20;;;3.63;;
55647;SDS011;45266;48.756;9.246;2023-09-30T19:19:43;8.13;;;4.33;;
55647;SDS011;45266;48.756;9.246;2023-09-30T19:24:44;9.93;;;4.27;;
55647;SDS011;45266;48.756;9.246;2023-09-30T19:29:49;8.47;;;4.60;;
55647;SDS011;45266;48.756;9.246;2023-09-30T19:34:50;9.37;;;4.37;;
55647;SDS011;45266;48.756;9.246;2023-09-30T19:39:53;6.43;;;3.90;;
55647;SDS011;45266;48.756;9.246;2023-09-30T19:44:55;9.13;;;4.30;;
55647;SDS011;45266;48.756;9.246;2023-09-30T19:49:57;9.47;;;3.90;;
55647;SDS011;45266;48.756;9.246;2023-09-30T19:54:58;13.50;;;4.50;;
55647;SDS011;45266;48.756;9.246;2023-09-30T20:00:00;9.00;;;3.70;;
55647;SDS011;45266;48.756;9.246;2023-09-30T20:05:05;9.73;;;4.67;;
55647;SDS011;45266;48.756;9.246;2023-09-30T20:10:07;11.37;;;4.70;;
55647;SDS011;45266;48.756;9.246;2023-09-30T20:15:10;7.03;;;4.27;;
55647;SDS011;45266;48.756;9.246;2023-09-30T20:20:12;7.67;;;3.93;;
55647;SDS011;45266;48.756;9.246;2023-09-30T20:25:17;8.80;;;5.00;;
55647;SDS011;45266;48.756;9.246;2023-09-30T20:30:19;9.03;;;4.33;;
55647;SDS011;45266;48.756;9.246;2023-09-30T20:35:21;9.20;;;4.10;;
55647;SDS011;45266;48.756;9.246;2023-09-30T20:40:24;6.00;;;3.67;;
55647;SDS011;45266;48.756;9.246;2023-09-30T20:45:32;12.03;;;4.80;;
55647;SDS011;45266;48.756;9.246;2023-09-30T20:50:34;10.53;;;4.97;;
55647;SDS011;45266;48.756;9.246;2023-09-30T20:55:36;8.43;;;4.37;;
55647;SDS011;45266;48.756;9.246;2023-09-30T21:00:38;8.30;;;3.67;;
55647;SDS011;45266;48.756;9.246;2023-09-30T21:05:41;6.60;;;3.87;;
55647;SDS011;45266;48.756;9.246;2023-09-30T21:10:43;9.03;;;4.80;;
55647;SDS011;45266;48.756;9.246;2023-09-30T21:15:45;10.37;;;4.63;;
55647;SDS011;45266;48.756;9.246;2023-09-30T21:20:47;9.43;;;4.10;;
55647;SDS011;45266;48.756;9.246;2023-09-30T21:25:49;6.97;;;4.03;;
55647;SDS011;45266;48.756;9.246;2023-09-30T21:30:51;8.30;;;4.43;;
55647;SDS011;45266;48.756;9.246;2023-09-30T21:35:56;6.70;;;4.20;;
55647;SDS011;45266;48.756;9.246;2023-09-30T21:40:58;12.30;;;4.00;;
55647;SDS011;45266;48.756;9.246;2023-09-30T21:46:00;8.87;;;4.20;;
55647;SDS011;45266;48.756;9.246;2023-09-30T21:51:02;13.40;;;4.83;;
55647;SDS011;45266;48.756;9.246;2023-09-30T21:56:04;9.20;;;4.77;;
55647;SDS011;45266;48.756;9.246;2023-09-30T22:01:06;10.53;;;4.80;;
55647;SDS011;45266;48.756;9.246;2023-09-30T22:06:11;15.37;;;4.20;;
55647;SDS011;45266;48.756;9.246;2023-09-30T22:11:14;11.90;;;4.70;;
55647;SDS011;45266;48.756;9.246;2023-09-30T22:16:16;10.27;;;4.23;;
55647;SDS011;45266;48.756;9.246;2023-09-30T22:21:18;7.13;;;3.80;;
55647;SDS011;45266;48.756;9.246;2023-09-30T22:26:20;4.57;;;3.30;;
55647;SDS011;45266;48.756;9.246;2023-09-30T22:31:21;7.27;;;4.20;;
55647;SDS011;45266;48.756;9.246;2023-09-30T22:36:23;8.60;;;4.00;;
55647;SDS011;45266;48.756;9.246;2023-09-30T22:41:40;9.60;;;4.97;;
55647;SDS011;45266;48.756;9.246;2023-09-30T22:46:42;6.50;;;3.77;;
55647;SDS011;45266;48.756;9.246;2023-09-30T22:51:45;10.90;;;4.77;;
55647;SDS011;45266;48.756;9.246;2023-09-30T22:56:51;7.93;;;4.20;;
55647;SDS011;45266;48.756;9.246;2023-09-30T23:01:55;9.67;;;4.60;;
55647;SDS011;45266;48.756;9.246;2023-09-30T23:06:57;10.27;;;3.70;;
55647;SDS011;45266;48.756;9.246;2023-09-30T23:12:02;14.07;;;4.00;;
55647;SDS011;45266;48.756;9.246;2023-09-30T23:17:06;9.17;;;3.97;;
55647;SDS011;45266;48.756;9.246;2023-09-30T23:22:08;9.87;;;4.63;;
55647;SDS011;45266;48.756;9.246;2023-09-30T23:27:11;6.40;;;3.73;;
55647;SDS011;45266;48.756;9.246;2023-09-30T23:32:15;8.10;;;4.37;;
55647;SDS011;45266;48.756;9.246;2023-09-30T23:37:16;9.90;;;5.20;;
55647;SDS011;45266;48.756;9.246;2023-09-30T23:42:18;17.63;;;4.43;;
55647;SDS011;45266;48.756;9.246;2023-09-30T23:47:21;7.67;;;4.10;;
55647;SDS011;45266;48.756;9.246;2023-09-30T23:52:40;10.07;;;5.00;;
55647;SDS011;45266;48.756;9.246;2023-09-30T23:57:44;9.27;;;4.03;;
